Time;durP1;ratioP1;P1;durP2;ratioP2;P2;SDS_P1;SDS_P2;PMS_P1;PMS_P2;Temp;Humidity;BMP_temperature;BMP_pressure;BME280_temperature;BME280_humidity;BME280_pressure;Samples;Min_cycle;Max_cycle;Signal;HPM_P1;HPM_P2
2023/05/18 00:01:15;;;;;;;11.65;5.72;;;;;;;;;;4996994;28;20053;-74
2023/05/18 00:03:42;;;;;;;10.63;5.57;;;;;;;;;;5012803;28;20067;-74
2023/05/18 00:06:09;;;;;;;11.65;5.70;;;;;;;;;;4997460;28;20100;-74
2023/05/18 00:08:36;;;;;;;10.07;6.85;;;;;;;;;;4996747;28;20096;-74
2023/05/18 00:11:04;;;;;;;10.23;5.70;;;;;;;;;;4993761;28;20058;-74
2023/05/18 00:13:31;;;;;;;10.95;5.95;;;;;;;;;;4961892;28;20050;-74
2023/05/18 00:15:58;;;;;;;12.95;6.30;;;;;;;;;;4977596;28;20104;-74
2023/05/18 00:18:26;;;;;;;10.90;6.22;;;;;;;;;;4993756;28;20112;-74
2023/05/18 00:20:59;;;;;;;12.00;5.82;;;;;;;;;;4993621;28;20136;-74
2023/05/18 00:23:28;;;;;;;10.15;6.15;;;;;;;;;;4963466;28;20112;-74
2023/05/18 00:25:58;;;;;;;9.85;5.85;;;;;;;;;;5002604;28;20053;-74
2023/05/18 00:28:25;;;;;;;10.93;5.88;;;;;;;;;;4981323;28;20100;-73
2023/05/18 00:30:52;;;;;;;7.30;5.47;;;;;;;;;;5013034;28;20049;-73
2023/05/18 00:33:19;;;;;;;12.60;6.30;;;;;;;;;;5013520;28;20049;-73
2023/05/18 00:35:46;;;;;;;7.70;5.68;;;;;;;;;;5013006;28;20137;-73
2023/05/18 00:38:16;;;;;;;8.73;6.13;;;;;;;;;;5029672;28;20634;-73
2023/05/18 00:40:43;;;;;;;12.27;6.55;;;;;;;;;;5013395;28;20080;-73
2023/05/18 00:43:10;;;;;;;11.30;6.63;;;;;;;;;;5034476;28;20078;-73
2023/05/18 00:45:37;;;;;;;8.90;6.68;;;;;;;;;;5014150;28;20081;-74
2023/05/18 00:48:04;;;;;;;10.02;6.38;;;;;;;;;;5029949;28;20057;-74
2023/05/18 00:50:31;;;;;;;8.75;6.40;;;;;;;;;;5029528;28;20066;-74
2023/05/18 00:52:58;;;;;;;11.02;6.50;;;;;;;;;;5013133;28;20088;-73
2023/05/18 00:55:26;;;;;;;10.88;6.50;;;;;;;;;;5030769;28;20497;-76
2023/05/18 00:57:55;;;;;;;11.88;6.88;;;;;;;;;;4997381;28;20107;-76
2023/05/18 01:00:22;;;;;;;11.50;7.80;;;;;;;;;;4980889;28;20119;-76
2023/05/18 01:02:49;;;;;;;14.15;7.50;;;;;;;;;;5013456;28;20061;-76
2023/05/18 01:05:18;;;;;;;10.00;6.93;;;;;;;;;;4996678;28;20515;-76
2023/05/18 01:07:45;;;;;;;9.45;6.95;;;;;;;;;;5013278;28;20420;-76
2023/05/18 01:10:13;;;;;;;10.98;6.97;;;;;;;;;;4980493;28;20089;-76
2023/05/18 01:12:57;;;;;;;11.65;6.28;;;;;;;;;;4996870;28;20513;-76
2023/05/18 01:15:35;;;;;;;11.65;8.30;;;;;;;;;;4998341;28;20089;-74
2023/05/18 01:18:22;;;;;;;9.32;6.82;;;;;;;;;;5016753;28;20089;-74
2023/05/18 01:20:56;;;;;;;10.88;6.60;;;;;;;;;;5016670;28;20061;-74
2023/05/18 01:23:51;;;;;;;8.88;6.45;;;;;;;;;;5001273;28;20064;-74
2023/05/18 01:26:28;;;;;;;11.07;6.82;;;;;;;;;;5016320;28;20144;-75
2023/05/18 01:28:58;;;;;;;11.85;6.82;;;;;;;;;;5000429;28;20053;-75
2023/05/18 01:31:25;;;;;;;12.23;6.75;;;;;;;;;;4999978;28;20088;-75
2023/05/18 01:33:52;;;;;;;11.30;6.93;;;;;;;;;;5016216;28;20107;-75
2023/05/18 01:36:19;;;;;;;14.18;6.70;;;;;;;;;;5015866;28;20589;-75
2023/05/18 01:38:46;;;;;;;12.45;6.35;;;;;;;;;;5000182;28;20053;-75
2023/05/18 01:41:21;;;;;;;15.30;7.22;;;;;;;;;;5016024;28;20655;-75
2023/05/18 01:44:03;;;;;;;11.70;6.43;;;;;;;;;;5016171;28;20063;-75
2023/05/18 01:46:48;;;;;;;13.93;7.45;;;;;;;;;;5015899;28;20074;-75
2023/05/18 01:49:31;;;;;;;8.82;7.00;;;;;;;;;;5016172;28;20047;-75
2023/05/18 01:52:02;;;;;;;10.23;6.85;;;;;;;;;;5000012;28;20053;-75
2023/05/18 01:54:30;;;;;;;10.43;7.03;;;;;;;;;;4999960;28;20049;-74
2023/05/18 01:56:57;;;;;;;10.77;6.65;;;;;;;;;;4982657;28;20133;-75
2023/05/18 01:59:24;;;;;;;12.45;6.97;;;;;;;;;;4999430;28;20099;-75
2023/05/18 02:01:50;;;;;;;12.25;7.82;;;;;;;;;;4983504;28;20136;-75
2023/05/18 02:04:25;;;;;;;10.27;6.40;;;;;;;;;;5016894;28;20069;-75
2023/05/18 02:06:53;;;;;;;12.65;7.22;;;;;;;;;;4991596;28;20053;-75
2023/05/18 02:09:20;;;;;;;15.95;6.88;;;;;;;;;;4980177;28;20061;-74
2023/05/18 02:11:48;;;;;;;11.52;6.80;;;;;;;;;;4996263;28;20455;-75
2023/05/18 02:14:14;;;;;;;11.13;6.97;;;;;;;;;;4995926;28;20084;-75
2023/05/18 02:16:50;;;;;;;11.25;6.28;;;;;;;;;;4995929;28;20089;-75
2023/05/18 02:19:18;;;;;;;10.45;6.53;;;;;;;;;;4981662;28;20060;-76
2023/05/18 02:21:45;;;;;;;12.95;7.22;;;;;;;;;;4995067;28;20136;-75
2023/05/18 02:24:12;;;;;;;12.00;7.28;;;;;;;;;;5021358;28;20073;-76
2023/05/18 02:26:40;;;;;;;12.50;6.72;;;;;;;;;;5000348;28;20085;-75
2023/05/18 02:29:10;;;;;;;13.80;7.00;;;;;;;;;;5014488;28;20033;-75
2023/05/18 02:31:37;;;;;;;10.57;6.32;;;;;;;;;;4998742;28;20081;-76
2023/05/18 02:34:04;;;;;;;9.40;7.07;;;;;;;;;;4981763;28;20057;-77
2023/05/18 02:36:41;;;;;;;11.15;6.85;;;;;;;;;;5025083;28;20475;-76
2023/05/18 02:39:09;;;;;;;10.68;7.10;;;;;;;;;;5023782;28;20076;-76
2023/05/18 02:41:36;;;;;;;12.80;7.40;;;;;;;;;;4999704;28;20144;-76
2023/05/18 02:44:03;;;;;;;12.45;7.05;;;;;;;;;;5015082;28;20076;-75
2023/05/18 02:46:30;;;;;;;10.00;6.63;;;;;;;;;;5014782;28;20115;-76
2023/05/18 02:48:57;;;;;;;9.18;6.38;;;;;;;;;;5015002;28;20081;-76
2023/05/18 02:51:24;;;;;;;16.85;7.43;;;;;;;;;;5014724;28;20103;-76
2023/05/18 02:53:51;;;;;;;8.65;6.47;;;;;;;;;;5015133;28;20054;-76
2023/05/18 02:56:18;;;;;;;12.77;7.15;;;;;;;;;;5014385;28;20084;-76
2023/05/18 02:58:44;;;;;;;11.52;6.22;;;;;;;;;;5014898;28;20107;-76
2023/05/18 03:01:11;;;;;;;10.50;6.97;;;;;;;;;;5023399;28;20109;-76
2023/05/18 03:03:38;;;;;;;11.70;7.15;;;;;;;;;;5032085;28;20136;-75
2023/05/18 03:06:07;;;;;;;10.77;7.43;;;;;;;;;;4982207;28;20053;-75
2023/05/18 03:08:35;;;;;;;12.77;7.63;;;;;;;;;;4998546;28;20107;-75
2023/05/18 03:11:03;;;;;;;10.38;6.90;;;;;;;;;;4998468;28;20091;-76
2023/05/18 03:13:29;;;;;;;11.35;7.32;;;;;;;;;;5032274;28;20089;-76
2023/05/18 03:15:57;;;;;;;11.25;6.93;;;;;;;;;;5014392;28;20524;-76
2023/05/18 03:18:24;;;;;;;11.32;7.70;;;;;;;;;;5014677;28;20057;-77
2023/05/18 03:20:51;;;;;;;10.10;7.95;;;;;;;;;;4998130;28;20099;-77
2023/05/18 03:23:18;;;;;;;13.02;7.40;;;;;;;;;;4998232;28;20046;-76
2023/05/18 03:25:45;;;;;;;11.65;7.07;;;;;;;;;;4998133;28;20128;-75
2023/05/18 03:28:12;;;;;;;12.52;7.05;;;;;;;;;;5014426;28;20057;-76
2023/05/18 03:30:39;;;;;;;11.60;7.20;;;;;;;;;;5030260;28;20437;-76
2023/05/18 03:33:06;;;;;;;14.50;7.20;;;;;;;;;;5014307;28;20050;-76
2023/05/18 03:35:32;;;;;;;11.23;7.13;;;;;;;;;;5020807;28;20046;-76
2023/05/18 03:37:59;;;;;;;13.25;6.70;;;;;;;;;;5034788;28;20088;-76
2023/05/18 03:40:26;;;;;;;12.80;7.25;;;;;;;;;;5014047;28;20092;-77
2023/05/18 03:42:53;;;;;;;12.35;7.53;;;;;;;;;;4997974;28;20053;-76
2023/05/18 03:45:20;;;;;;;15.55;7.13;;;;;;;;;;5013763;28;20529;-77
2023/05/18 03:47:47;;;;;;;11.85;6.57;;;;;;;;;;4997864;28;20061;-76
2023/05/18 03:50:13;;;;;;;12.73;6.85;;;;;;;;;;4997638;28;20053;-77
2023/05/18 03:52:43;;;;;;;9.95;6.95;;;;;;;;;;4998104;28;20115;-78
2023/05/18 03:55:10;;;;;;;10.63;7.13;;;;;;;;;;4997662;28;20059;-78
2023/05/18 03:57:38;;;;;;;12.88;6.75;;;;;;;;;;4997861;28;20560;-78
2023/05/18 04:00:10;;;;;;;13.07;7.40;;;;;;;;;;5013684;28;20144;-78
2023/05/18 04:02:37;;;;;;;11.77;7.28;;;;;;;;;;5013803;28;20103;-77
2023/05/18 04:05:05;;;;;;;13.90;7.88;;;;;;;;;;4997066;28;20049;-77
2023/05/18 04:07:32;;;;;;;16.20;8.10;;;;;;;;;;4981915;28;20060;-77
2023/05/18 04:09:59;;;;;;;10.73;5.95;;;;;;;;;;5013816;28;20178;-75
2023/05/18 04:12:25;;;;;;;10.70;6.90;;;;;;;;;;5013900;28;20057;-76
2023/05/18 04:14:53;;;;;;;10.93;7.25;;;;;;;;;;5012013;28;20489;-75
2023/05/18 04:17:22;;;;;;;12.50;7.43;;;;;;;;;;5019808;28;20075;-75
2023/05/18 04:19:49;;;;;;;12.90;7.50;;;;;;;;;;5014051;28;20088;-75
2023/05/18 04:22:16;;;;;;;12.05;6.82;;;;;;;;;;5019878;28;20050;-76
2023/05/18 04:24:46;;;;;;;10.70;6.60;;;;;;;;;;4997662;28;20080;-75
2023/05/18 04:27:13;;;;;;;8.35;6.28;;;;;;;;;;4998060;28;20498;-76
2023/05/18 04:29:42;;;;;;;11.13;7.07;;;;;;;;;;4982984;28;20056;-75
2023/05/18 04:32:09;;;;;;;9.77;6.32;;;;;;;;;;5010007;28;20092;-75
2023/05/18 04:34:36;;;;;;;11.00;6.50;;;;;;;;;;4997413;28;20079;-75
2023/05/18 04:37:04;;;;;;;10.20;6.25;;;;;;;;;;5014603;28;20056;-75
2023/05/18 04:39:34;;;;;;;13.40;6.35;;;;;;;;;;5013566;28;20132;-75
2023/05/18 04:42:03;;;;;;;16.65;6.95;;;;;;;;;;4996875;28;20136;-75
2023/05/18 04:44:33;;;;;;;20.63;7.90;;;;;;;;;;5013175;28;20111;-75
2023/05/18 04:47:00;;;;;;;15.15;8.02;;;;;;;;;;4997622;28;20049;-75
2023/05/18 04:49:27;;;;;;;13.70;8.27;;;;;;;;;;5012902;28;20124;-75
2023/05/18 04:51:58;;;;;;;15.85;9.30;;;;;;;;;;5016532;28;20147;-75
2023/05/18 04:54:27;;;;;;;17.58;8.15;;;;;;;;;;5017847;28;20136;-75
2023/05/18 04:56:54;;;;;;;15.20;8.75;;;;;;;;;;5001957;28;20076;-75
2023/05/18 04:59:24;;;;;;;21.73;11.07;;;;;;;;;;5001872;28;20084;-75
2023/05/18 05:01:52;;;;;;;14.80;9.65;;;;;;;;;;5017990;28;20088;-74
2023/05/18 05:04:20;;;;;;;12.40;7.47;;;;;;;;;;5000867;28;20057;-73
2023/05/18 05:06:47;;;;;;;10.55;6.38;;;;;;;;;;5000338;28;20087;-72
2023/05/18 05:09:13;;;;;;;12.98;6.68;;;;;;;;;;5027685;28;20141;-72
2023/05/18 05:11:40;;;;;;;14.68;5.78;;;;;;;;;;4996810;28;20145;-73
2023/05/18 05:14:07;;;;;;;12.15;6.00;;;;;;;;;;5022780;28;20514;-73
2023/05/18 05:16:34;;;;;;;12.80;7.57;;;;;;;;;;5028403;28;20053;-73
2023/05/18 05:19:05;;;;;;;14.85;9.45;;;;;;;;;;5016640;28;20056;-73
2023/05/18 05:21:32;;;;;;;14.20;8.18;;;;;;;;;;5034110;28;20093;-72
2023/05/18 05:24:00;;;;;;;16.05;7.30;;;;;;;;;;5033056;28;20132;-72
2023/05/18 05:26:27;;;;;;;10.23;6.30;;;;;;;;;;5016805;28;20394;-73
2023/05/18 05:28:53;;;;;;;11.20;6.70;;;;;;;;;;5036908;28;20063;-73
2023/05/18 05:31:20;;;;;;;12.13;5.97;;;;;;;;;;5017089;28;20131;-73
2023/05/18 05:33:47;;;;;;;12.98;5.57;;;;;;;;;;5033591;28;20053;-73
2023/05/18 05:36:14;;;;;;;14.38;5.53;;;;;;;;;;5016502;28;20111;-73
2023/05/18 05:38:41;;;;;;;10.57;4.53;;;;;;;;;;5016260;28;20058;-73
2023/05/18 05:41:07;;;;;;;10.65;5.25;;;;;;;;;;5032531;28;20089;-73
2023/05/18 05:43:37;;;;;;;7.97;4.20;;;;;;;;;;5032659;28;20484;-73
2023/05/18 05:46:04;;;;;;;8.45;4.03;;;;;;;;;;5035421;28;20107;-72
2023/05/18 05:48:34;;;;;;;12.82;4.30;;;;;;;;;;5034737;28;20079;-73
2023/05/18 05:51:00;;;;;;;7.53;3.80;;;;;;;;;;5032497;28;20549;-72
2023/05/18 05:53:28;;;;;;;7.68;3.75;;;;;;;;;;5032313;28;20565;-72
2023/05/18 05:55:55;;;;;;;11.25;4.00;;;;;;;;;;5032171;28;20099;-73
2023/05/18 05:58:22;;;;;;;10.02;3.65;;;;;;;;;;5032533;28;20490;-73
2023/05/18 06:00:49;;;;;;;17.80;3.90;;;;;;;;;;5032715;28;20100;-72
2023/05/18 06:03:16;;;;;;;12.82;3.38;;;;;;;;;;5031975;28;20045;-74
2023/05/18 06:05:43;;;;;;;8.80;3.80;;;;;;;;;;5032230;28;20072;-73
2023/05/18 06:08:11;;;;;;;10.48;3.58;;;;;;;;;;5032851;28;20085;-73
2023/05/18 06:10:40;;;;;;;12.10;3.55;;;;;;;;;;5017587;28;20132;-75
2023/05/18 06:13:07;;;;;;;9.18;3.70;;;;;;;;;;5015563;28;20049;-74
2023/05/18 06:15:34;;;;;;;8.27;3.60;;;;;;;;;;4999451;28;20053;-74
2023/05/18 06:18:00;;;;;;;7.78;3.60;;;;;;;;;;4999615;28;20124;-75
2023/05/18 06:20:27;;;;;;;9.15;3.08;;;;;;;;;;5014942;28;20417;-75
2023/05/18 06:22:55;;;;;;;5.00;2.88;;;;;;;;;;5032881;28;20492;-74
2023/05/18 06:25:23;;;;;;;7.78;3.10;;;;;;;;;;4982998;28;20136;-74
2023/05/18 06:27:50;;;;;;;7.93;3.70;;;;;;;;;;5009978;28;20053;-72
2023/05/18 06:30:17;;;;;;;12.02;3.33;;;;;;;;;;5031144;28;20050;-72
2023/05/18 06:32:44;;;;;;;9.63;3.25;;;;;;;;;;5006515;28;20148;-72
2023/05/18 06:35:11;;;;;;;10.50;3.80;;;;;;;;;;5031502;28;20053;-72
2023/05/18 06:37:38;;;;;;;8.88;3.22;;;;;;;;;;5013441;28;20058;-72
2023/05/18 06:40:07;;;;;;;8.43;3.47;;;;;;;;;;5014814;28;20417;-74
2023/05/18 06:42:34;;;;;;;9.40;3.42;;;;;;;;;;4995873;28;20113;-73
2023/05/18 06:45:01;;;;;;;8.60;2.92;;;;;;;;;;5015342;28;20133;-74
2023/05/18 06:47:28;;;;;;;11.82;2.75;;;;;;;;;;4984010;28;20056;-73
2023/05/18 06:49:55;;;;;;;7.38;2.67;;;;;;;;;;5009089;28;20418;-77
2023/05/18 06:52:22;;;;;;;9.27;2.80;;;;;;;;;;4993576;28;20128;-77
2023/05/18 06:54:51;;;;;;;6.20;3.17;;;;;;;;;;4982186;28;20498;-75
2023/05/18 06:57:24;;;;;;;7.07;2.83;;;;;;;;;;4993989;28;20053;-74
2023/05/18 06:59:52;;;;;;;;;;;;;;;;;;5009123;28;20081;-75
2023/05/18 07:02:20;;;;;;;8.88;3.17;;;;;;;;;;5012871;28;19939;-75
2023/05/18 07:04:48;;;;;;;7.32;2.78;;;;;;;;;;5025511;28;20045;-75
2023/05/18 07:07:15;;;;;;;6.85;2.97;;;;;;;;;;4961648;28;20465;-75
2023/05/18 07:09:44;;;;;;;7.18;2.30;;;;;;;;;;4984011;28;20081;-74
2023/05/18 07:12:11;;;;;;;10.95;2.75;;;;;;;;;;4996411;28;20054;-75
2023/05/18 07:14:38;;;;;;;5.55;2.35;;;;;;;;;;4994302;28;20704;-75
2023/05/18 07:17:06;;;;;;;7.88;2.70;;;;;;;;;;4983984;28;20473;-75
2023/05/18 07:19:34;;;;;;;10.25;2.90;;;;;;;;;;5012816;28;20079;-75
2023/05/18 07:22:03;;;;;;;7.63;3.00;;;;;;;;;;4987409;28;20050;-73
2023/05/18 07:24:30;;;;;;;6.32;2.42;;;;;;;;;;5006397;28;20077;-75
2023/05/18 07:26:58;;;;;;;11.45;3.03;;;;;;;;;;5012215;28;20080;-73
2023/05/18 07:29:27;;;;;;;7.35;2.53;;;;;;;;;;5000278;28;20522;-74
2023/05/18 07:31:54;;;;;;;8.75;2.42;;;;;;;;;;4977624;28;20057;-74
2023/05/18 07:34:22;;;;;;;7.57;2.97;;;;;;;;;;4997521;28;20550;-74
2023/05/18 07:36:49;;;;;;;12.20;3.33;;;;;;;;;;4992834;28;20054;-73
2023/05/18 07:39:19;;;;;;;4.55;2.85;;;;;;;;;;4996026;28;20137;-74
2023/05/18 07:41:47;;;;;;;8.70;2.65;;;;;;;;;;4993589;28;20093;-74
2023/05/18 07:44:14;;;;;;;7.00;2.45;;;;;;;;;;4977687;28;20527;-75
2023/05/18 07:46:42;;;;;;;7.40;2.88;;;;;;;;;;4977264;28;20057;-76
2023/05/18 07:49:09;;;;;;;7.82;2.63;;;;;;;;;;4976795;28;20058;-74
2023/05/18 07:51:35;;;;;;;11.00;2.72;;;;;;;;;;4992534;28;20107;-75
2023/05/18 07:54:04;;;;;;;8.77;2.55;;;;;;;;;;4992704;28;20129;-75
2023/05/18 07:56:32;;;;;;;6.80;2.38;;;;;;;;;;4988050;28;20059;-76
2023/05/18 07:58:58;;;;;;;5.78;2.10;;;;;;;;;;5014052;28;20140;-73
2023/05/18 08:01:27;;;;;;;6.45;2.70;;;;;;;;;;5029902;28;20059;-73
2023/05/18 08:03:53;;;;;;;5.68;3.00;;;;;;;;;;5030149;28;20089;-73
2023/05/18 08:06:20;;;;;;;10.18;3.58;;;;;;;;;;4997283;28;20148;-73
2023/05/18 08:08:47;;;;;;;9.70;2.60;;;;;;;;;;5013503;28;20053;-73
2023/05/18 08:11:14;;;;;;;6.18;2.78;;;;;;;;;;5016710;28;20076;-72
2023/05/18 08:13:40;;;;;;;6.35;3.15;;;;;;;;;;4994055;28;20100;-73
2023/05/18 08:16:07;;;;;;;8.85;2.65;;;;;;;;;;4993909;28;20516;-73
2023/05/18 08:18:38;;;;;;;9.90;2.90;;;;;;;;;;4994777;28;20264;-73
2023/05/18 08:21:08;;;;;;;5.25;2.30;;;;;;;;;;4993725;28;20520;-73
2023/05/18 08:23:35;;;;;;;5.00;1.80;;;;;;;;;;4995655;28;20058;-74
2023/05/18 08:26:02;;;;;;;7.72;2.58;;;;;;;;;;5016111;28;20096;-73
2023/05/18 08:28:29;;;;;;;5.45;1.80;;;;;;;;;;5017509;28;20057;-73
2023/05/18 08:30:56;;;;;;;7.90;2.97;;;;;;;;;;5002627;28;20133;-73
2023/05/18 08:33:23;;;;;;;8.00;2.75;;;;;;;;;;5004904;28;20056;-74
2023/05/18 08:35:50;;;;;;;7.00;1.90;;;;;;;;;;5033928;28;20148;-74
2023/05/18 08:38:17;;;;;;;8.05;1.75;;;;;;;;;;5017451;28;20071;-74
2023/05/18 08:41:06;;;;;;;7.55;2.30;;;;;;;;;;5017677;28;20057;-73
2023/05/18 08:43:35;;;;;;;4.63;2.05;;;;;;;;;;5016705;28;20089;-73
2023/05/18 08:46:41;;;;;;;7.25;2.70;;;;;;;;;;5000784;28;20564;-73
2023/05/18 08:49:09;;;;;;;8.30;2.88;;;;;;;;;;5017499;28;20168;-73
2023/05/18 08:51:36;;;;;;;6.35;2.60;;;;;;;;;;5016747;28;20049;-73
2023/05/18 08:54:04;;;;;;;6.28;2.65;;;;;;;;;;5000279;28;20140;-74
2023/05/18 08:56:33;;;;;;;7.00;3.67;;;;;;;;;;5017145;28;20128;-73
2023/05/18 08:59:03;;;;;;;10.18;3.17;;;;;;;;;;5014214;28;20119;-73
2023/05/18 09:01:31;;;;;;;5.45;2.60;;;;;;;;;;5002021;28;20111;-73
2023/05/18 09:03:58;;;;;;;8.38;2.83;;;;;;;;;;5017411;28;20421;-73
2023/05/18 09:06:29;;;;;;;6.90;3.00;;;;;;;;;;5055269;23;20054;-75
2023/05/18 09:09:03;;;;;;;7.38;2.83;;;;;;;;;;5019955;28;20092;-74
2023/05/18 09:11:31;;;;;;;5.78;2.83;;;;;;;;;;5003740;28;20057;-75
2023/05/18 09:13:58;;;;;;;8.88;3.38;;;;;;;;;;5018255;28;20053;-75
2023/05/18 09:16:25;;;;;;;7.03;2.55;;;;;;;;;;4982977;28;20114;-75
2023/05/18 09:18:52;;;;;;;7.63;2.63;;;;;;;;;;5014350;28;20490;-75
2023/05/18 09:21:19;;;;;;;6.65;2.15;;;;;;;;;;5013115;28;20057;-75
2023/05/18 09:23:46;;;;;;;6.65;3.00;;;;;;;;;;5008807;28;20105;-75
2023/05/18 09:26:13;;;;;;;10.60;3.25;;;;;;;;;;4993109;28;20082;-75
2023/05/18 09:28:40;;;;;;;8.30;2.65;;;;;;;;;;4994141;28;20137;-75
2023/05/18 09:31:11;;;;;;;5.93;2.50;;;;;;;;;;4992792;28;20065;-75
2023/05/18 09:33:39;;;;;;;8.57;3.28;;;;;;;;;;4995066;28;20058;-75
2023/05/18 09:36:07;;;;;;;6.78;3.15;;;;;;;;;;4995770;28;20107;-75
2023/05/18 09:38:41;;;;;;;6.95;2.90;;;;;;;;;;5013635;28;20107;-75
2023/05/18 09:41:10;;;;;;;7.85;2.45;;;;;;;;;;5012579;28;20688;-75
2023/05/18 09:43:37;;;;;;;6.78;2.95;;;;;;;;;;4996118;28;20137;-75
2023/05/18 09:46:07;;;;;;;8.65;2.90;;;;;;;;;;4996178;28;20053;-75
2023/05/18 09:48:35;;;;;;;6.20;2.47;;;;;;;;;;5003308;28;20081;-75
2023/05/18 09:51:06;;;;;;;6.80;2.50;;;;;;;;;;4993516;28;20074;-75
2023/05/18 09:53:38;;;;;;;8.95;2.58;;;;;;;;;;4993103;28;20475;-74
2023/05/18 09:56:08;;;;;;;6.22;2.67;;;;;;;;;;4976559;28;20400;-75
2023/05/18 09:58:35;;;;;;;7.13;2.38;;;;;;;;;;4992657;28;20152;-74
2023/05/18 10:01:02;;;;;;;6.68;3.30;;;;;;;;;;4992686;28;20055;-75
2023/05/18 10:03:36;;;;;;;5.82;2.10;;;;;;;;;;4992237;28;20062;-74
2023/05/18 10:08:44;;;;;;;8.38;2.65;;;;;;;;;;5151712;27;20377;-72
2023/05/18 10:11:11;;;;;;;9.63;3.30;;;;;;;;;;5101151;28;20054;-72
2023/05/18 10:13:38;;;;;;;6.60;2.40;;;;;;;;;;5113559;28;20506;-73
2023/05/18 10:16:06;;;;;;;5.47;2.40;;;;;;;;;;5082996;28;20047;-73
2023/05/18 10:18:35;;;;;;;10.77;3.08;;;;;;;;;;5060308;28;20055;-73
2023/05/18 10:21:03;;;;;;;8.40;2.90;;;;;;;;;;5075628;28;20051;-73
2023/05/18 10:23:32;;;;;;;6.75;2.80;;;;;;;;;;5091271;28;20524;-73
2023/05/18 10:25:59;;;;;;;9.77;3.03;;;;;;;;;;5058051;28;20094;-74
2023/05/18 10:28:32;;;;;;;5.70;2.38;;;;;;;;;;5073923;28;20052;-73
2023/05/18 10:30:59;;;;;;;7.35;2.85;;;;;;;;;;5044616;28;20135;-74
2023/05/18 10:33:27;;;;;;;4.00;2.30;;;;;;;;;;5037859;28;20143;-73
2023/05/18 10:35:56;;;;;;;5.05;2.03;;;;;;;;;;5054571;28;20427;-75
2023/05/18 10:38:25;;;;;;;6.63;2.22;;;;;;;;;;5070378;28;20083;-76
2023/05/18 10:40:56;;;;;;;4.82;2.53;;;;;;;;;;5053557;28;20500;-75
2023/05/18 10:43:27;;;;;;;6.05;2.05;;;;;;;;;;5056624;28;20095;-75
2023/05/18 10:45:59;;;;;;;5.90;2.75;;;;;;;;;;5074388;28;20134;-75
2023/05/18 10:48:28;;;;;;;4.57;1.77;;;;;;;;;;5074190;28;20047;-75
2023/05/18 10:50:56;;;;;;;6.20;2.17;;;;;;;;;;5073769;28;20052;-75
2023/05/18 10:53:25;;;;;;;4.15;2.20;;;;;;;;;;5090262;28;20419;-76
2023/05/18 10:55:53;;;;;;;6.75;2.30;;;;;;;;;;5075037;28;20056;-79
2023/05/18 10:58:25;;;;;;;6.18;2.08;;;;;;;;;;5074189;28;20047;-79
2023/05/18 11:01:00;;;;;;;6.00;2.45;;;;;;;;;;5090771;28;20105;-79
2023/05/18 11:03:27;;;;;;;7.55;2.40;;;;;;;;;;5058657;28;20448;-80
2023/05/18 11:06:10;;;;;;;6.75;2.08;;;;;;;;;;5074498;28;20109;-79
2023/05/18 11:08:46;;;;;;;;;;;;;;;;;;5109253;28;20051;-79
2023/05/18 11:11:13;;;;;;;6.03;2.13;;;;;;;;;;5091627;28;19965;-80
2023/05/18 11:13:46;;;;;;;5.63;2.53;;;;;;;;;;5078007;28;20051;-79
2023/05/18 11:16:18;;;;;;;7.65;2.33;;;;;;;;;;5059611;28;20044;-80
2023/05/18 11:18:49;;;;;;;5.38;1.90;;;;;;;;;;5052449;28;20126;-79
2023/05/18 11:21:33;;;;;;;4.78;1.92;;;;;;;;;;5076322;28;20085;-79
2023/05/18 11:24:23;;;;;;;5.82;2.50;;;;;;;;;;5078517;28;20508;-76
2023/05/18 11:26:58;;;;;;;6.68;2.50;;;;;;;;;;5078305;28;20040;-76
2023/05/18 11:29:40;;;;;;;5.50;2.00;;;;;;;;;;5077088;28;20048;-75
2023/05/18 11:32:21;;;;;;;7.63;2.67;;;;;;;;;;5061040;28;20044;-76
2023/05/18 11:34:56;;;;;;;5.30;1.70;;;;;;;;;;5048072;28;20097;-76
2023/05/18 11:37:38;;;;;;;7.57;2.15;;;;;;;;;;5067150;28;20056;-77
2023/05/18 11:40:08;;;;;;;4.83;1.80;;;;;;;;;;5078063;28;20084;-76
2023/05/18 11:42:37;;;;;;;5.78;2.45;;;;;;;;;;5078719;28;20090;-77
2023/05/18 11:45:08;;;;;;;5.80;1.88;;;;;;;;;;5061931;28;20110;-77
2023/05/18 11:47:36;;;;;;;6.43;2.08;;;;;;;;;;5057147;28;20076;-77
2023/05/18 11:50:07;;;;;;;7.95;2.30;;;;;;;;;;5074555;28;20071;-76
2023/05/18 11:52:45;;;;;;;6.43;1.92;;;;;;;;;;5058258;28;20547;-77
2023/05/18 11:55:15;;;;;;;4.90;1.85;;;;;;;;;;5058395;28;20078;-77
2023/05/18 11:57:46;;;;;;;8.93;2.28;;;;;;;;;;5058166;28;20045;-77
2023/05/18 12:00:14;;;;;;;6.72;2.03;;;;;;;;;;5029894;28;20124;-77
2023/05/18 12:02:43;;;;;;;9.32;2.88;;;;;;;;;;5028079;28;20075;-77
2023/05/18 12:05:11;;;;;;;4.85;2.30;;;;;;;;;;5058376;28;20095;-77
2023/05/18 12:07:38;;;;;;;4.97;2.05;;;;;;;;;;5041285;28;20139;-77
2023/05/18 12:10:15;;;;;;;6.72;1.95;;;;;;;;;;5057800;28;20451;-77
2023/05/18 12:12:42;;;;;;;4.78;1.98;;;;;;;;;;5042298;28;20064;-77
2023/05/18 12:15:10;;;;;;;5.00;2.05;;;;;;;;;;5052641;28;20139;-77
2023/05/18 12:17:44;;;;;;;8.60;2.53;;;;;;;;;;5077855;28;20109;-77
2023/05/18 12:20:16;;;;;;;7.50;1.88;;;;;;;;;;5078243;28;20055;-76
2023/05/18 12:22:45;;;;;;;9.68;2.28;;;;;;;;;;5076680;28;20113;-77
2023/05/18 12:25:12;;;;;;;9.07;2.67;;;;;;;;;;5076213;28;20086;-76
2023/05/18 12:27:40;;;;;;;4.35;1.85;;;;;;;;;;5059572;28;20598;-77
2023/05/18 12:30:20;;;;;;;6.10;1.77;;;;;;;;;;5075963;28;20058;-77
2023/05/18 12:32:49;;;;;;;8.27;1.98;;;;;;;;;;5075887;28;20135;-76
2023/05/18 12:35:17;;;;;;;5.25;1.90;;;;;;;;;;5075826;28;20082;-77
2023/05/18 12:37:44;;;;;;;6.53;1.60;;;;;;;;;;5043253;28;20131;-77
2023/05/18 12:40:16;;;;;;;8.50;2.15;;;;;;;;;;5060803;28;20462;-77
2023/05/18 12:42:55;;;;;;;6.18;1.98;;;;;;;;;;5060686;28;20131;-79
2023/05/18 12:45:25;;;;;;;4.07;1.90;;;;;;;;;;5075553;28;20060;-75
2023/05/18 12:47:56;;;;;;;10.55;2.80;;;;;;;;;;5058508;28;20519;-74
2023/05/18 12:50:27;;;;;;;9.80;1.90;;;;;;;;;;5043399;28;20568;-75
2023/05/18 12:52:55;;;;;;;5.93;1.98;;;;;;;;;;5059556;28;20052;-76
2023/05/18 12:55:23;;;;;;;4.40;2.08;;;;;;;;;;5024313;28;20131;-76
2023/05/18 12:58:05;;;;;;;5.38;2.00;;;;;;;;;;5053228;28;20070;-76
2023/05/18 13:00:36;;;;;;;5.45;2.17;;;;;;;;;;5036753;28;20052;-76
2023/05/18 13:03:20;;;;;;;4.22;1.92;;;;;;;;;;5053482;28;20139;-76
2023/05/18 13:06:04;;;;;;;6.93;1.60;;;;;;;;;;5037285;28;20079;-76
2023/05/18 13:08:32;;;;;;;3.42;1.60;;;;;;;;;;5048997;28;20097;-75
2023/05/18 13:11:03;;;;;;;5.97;1.67;;;;;;;;;;5056066;28;20052;-74
2023/05/18 13:14:06;;;;;;;4.68;2.08;;;;;;;;;;5058912;28;20155;-75
2023/05/18 13:16:33;;;;;;;5.72;1.92;;;;;;;;;;5056984;28;20056;-76
2023/05/18 13:19:02;;;;;;;4.45;1.63;;;;;;;;;;5073476;28;20060;-75
2023/05/18 13:21:29;;;;;;;6.63;2.08;;;;;;;;;;5049419;28;20147;-75
2023/05/18 13:23:56;;;;;;;5.82;1.80;;;;;;;;;;5052799;28;20049;-75
2023/05/18 13:26:24;;;;;;;5.20;2.13;;;;;;;;;;5052171;28;20143;-75
2023/05/18 13:28:53;;;;;;;3.55;1.65;;;;;;;;;;5035907;28;20045;-75
2023/05/18 13:31:19;;;;;;;4.45;1.63;;;;;;;;;;5051842;28;20463;-75
2023/05/18 13:33:47;;;;;;;5.53;1.50;;;;;;;;;;5068489;28;20052;-75
2023/05/18 13:36:14;;;;;;;5.45;1.70;;;;;;;;;;5043119;28;20661;-76
2023/05/18 13:38:41;;;;;;;5.13;1.48;;;;;;;;;;5068537;28;20135;-75
2023/05/18 13:41:15;;;;;;;7.45;1.88;;;;;;;;;;5052201;28;20105;-73
2023/05/18 13:43:42;;;;;;;9.10;2.20;;;;;;;;;;5052525;28;20052;-73
2023/05/18 13:46:09;;;;;;;6.43;2.53;;;;;;;;;;5051810;28;20092;-74
2023/05/18 13:48:36;;;;;;;7.72;1.88;;;;;;;;;;5052313;28;20130;-74
2023/05/18 13:51:03;;;;;;;9.90;1.80;;;;;;;;;;5071950;28;20048;-74
2023/05/18 13:53:29;;;;;;;8.95;2.10;;;;;;;;;;5072072;28;20669;-73
2023/05/18 13:55:56;;;;;;;7.70;1.50;;;;;;;;;;5072114;28;20507;-73
2023/05/18 13:58:23;;;;;;;3.40;1.48;;;;;;;;;;5055556;28;20135;-74
2023/05/18 14:00:52;;;;;;;4.40;1.65;;;;;;;;;;5071830;28;20056;-74
2023/05/18 14:03:19;;;;;;;4.82;2.28;;;;;;;;;;5072208;28;20056;-74
2023/05/18 14:05:46;;;;;;;7.15;2.20;;;;;;;;;;5072423;28;20079;-74
2023/05/18 14:08:13;;;;;;;6.18;1.85;;;;;;;;;;5071957;28;20079;-74
2023/05/18 14:10:40;;;;;;;4.50;1.67;;;;;;;;;;5071824;28;20051;-74
2023/05/18 14:13:08;;;;;;;5.30;1.63;;;;;;;;;;5071917;28;20082;-74
2023/05/18 14:15:34;;;;;;;4.18;1.80;;;;;;;;;;5071679;28;20097;-74
2023/05/18 14:18:01;;;;;;;6.22;2.38;;;;;;;;;;5071744;28;20473;-74
2023/05/18 14:20:28;;;;;;;5.03;1.83;;;;;;;;;;5051388;28;20106;-74
2023/05/18 14:22:56;;;;;;;5.22;1.52;;;;;;;;;;5051720;28;20056;-74
2023/05/18 14:25:23;;;;;;;5.88;2.00;;;;;;;;;;5051687;28;20052;-74
2023/05/18 14:27:50;;;;;;;9.10;1.67;;;;;;;;;;5051573;28;20125;-73
2023/05/18 14:30:16;;;;;;;5.57;2.10;;;;;;;;;;5051627;28;20131;-74
2023/05/18 14:32:43;;;;;;;6.80;1.88;;;;;;;;;;5074210;28;20143;-74
2023/05/18 14:35:10;;;;;;;5.65;2.05;;;;;;;;;;5071666;28;20052;-74
2023/05/18 14:37:37;;;;;;;5.75;1.92;;;;;;;;;;5071971;28;20197;-74
2023/05/18 14:40:05;;;;;;;4.97;1.33;;;;;;;;;;5073852;28;20098;-73
2023/05/18 14:42:31;;;;;;;6.57;1.60;;;;;;;;;;5074951;28;20511;-73
2023/05/18 14:44:58;;;;;;;4.10;1.40;;;;;;;;;;5072597;28;20052;-73
2023/05/18 14:47:25;;;;;;;6.00;1.70;;;;;;;;;;5055480;28;20048;-74
2023/05/18 14:49:52;;;;;;;9.23;2.10;;;;;;;;;;5071681;28;20518;-73
2023/05/18 14:52:18;;;;;;;4.72;1.50;;;;;;;;;;5071339;28;20143;-73